createdAt,value
2017-11-01T00:02:22.096Z,80.17
2017-11-01T00:04:51.002Z,70.57
2017-11-01T00:07:19.908Z,40.20
2017-11-01T00:09:48.096Z,23.60
2017-11-01T00:12:16.219Z,15.93
2017-11-01T00:14:44.382Z,21.90
2017-11-01T00:17:12.511Z,12.45
2017-11-01T00:19:40.653Z,16.45
2017-11-01T00:22:09.529Z,15.87
2017-11-01T00:24:38.429Z,11.32
2017-11-01T00:27:07.319Z,10.65
2017-11-01T00:29:36.219Z,13.27
2017-11-01T00:32:05.206Z,13.20
2017-11-01T00:34:34.139Z,12.32
2017-11-01T00:37:02.277Z,11.07
2017-11-01T00:39:31.162Z,11.30
2017-11-01T00:42:00.048Z,10.77
2017-11-01T00:44:28.942Z,12.15
2017-11-01T00:46:57.057Z,8.80
2017-11-01T00:49:25.192Z,8.93
2017-11-01T00:51:53.342Z,10.53
2017-11-01T00:54:21.532Z,13.55
2017-11-01T00:56:50.410Z,10.20
2017-11-01T00:59:18.530Z,10.40
2017-11-01T01:01:46.846Z,9.57
2017-11-01T01:04:14.961Z,9.73
2017-11-01T01:06:43.079Z,9.03
2017-11-01T01:09:11.192Z,11.90
2017-11-01T01:11:39.306Z,10.93
2017-11-01T01:14:07.499Z,9.20
2017-11-01T01:16:35.622Z,9.23
2017-11-01T01:19:03.752Z,8.45
2017-11-01T01:21:31.863Z,8.97
2017-11-01T01:24:00.007Z,17.80
2017-11-01T01:26:28.912Z,7.90
2017-11-01T01:28:57.931Z,10.88
2017-11-01T01:31:26.086Z,13.62
2017-11-01T01:33:54.271Z,7.97
2017-11-01T01:36:23.129Z,9.10
2017-11-01T01:38:52.003Z,8.02
2017-11-01T01:41:20.115Z,11.90
2017-11-01T01:43:48.222Z,9.38
2017-11-01T01:46:16.393Z,12.43
2017-11-01T01:48:44.552Z,10.25
2017-11-01T01:51:12.663Z,11.20
2017-11-01T01:53:40.877Z,9.10
2017-11-01T01:56:09.739Z,11.35
2017-11-01T01:58:38.664Z,11.07
2017-11-01T02:01:07.555Z,13.37
2017-11-01T02:03:35.709Z,8.30
2017-11-01T02:06:04.684Z,11.23
2017-11-01T02:08:33.713Z,10.60
2017-11-01T02:11:01.907Z,9.15
2017-11-01T02:13:30.025Z,15.15
2017-11-01T02:15:58.895Z,9.40
2017-11-01T02:18:27.026Z,10.95
2017-11-01T02:20:55.153Z,16.50
2017-11-01T02:23:24.043Z,11.30
2017-11-01T02:25:52.358Z,11.65
2017-11-01T02:28:21.367Z,12.30
2017-11-01T02:30:49.467Z,12.10
2017-11-01T02:33:17.964Z,10.82
2017-11-01T02:35:46.090Z,8.13
2017-11-01T02:38:14.250Z,9.95
2017-11-01T02:40:42.478Z,13.43
2017-11-01T02:43:10.649Z,10.07
2017-11-01T02:45:38.829Z,8.10
2017-11-01T02:48:07.731Z,16.33
2017-11-01T02:50:36.612Z,7.27
2017-11-01T02:53:04.753Z,11.95
2017-11-01T02:55:32.868Z,11.63
2017-11-01T02:58:01.897Z,10.52
2017-11-01T03:00:30.025Z,9.77
2017-11-01T03:02:58.953Z,11.60
2017-11-01T03:05:27.061Z,9.32
2017-11-01T03:07:55.247Z,12.15
2017-11-01T03:10:23.437Z,9.63
2017-11-01T03:12:51.554Z,11.75
2017-11-01T03:15:19.674Z,8.60
2017-11-01T03:17:48.561Z,13.35
2017-11-01T03:20:17.438Z,11.95
2017-11-01T03:22:45.566Z,13.52
2017-11-01T03:25:13.865Z,9.27
2017-11-01T03:27:41.970Z,9.55
2017-11-01T03:30:10.864Z,8.73
2017-11-01T03:32:38.986Z,13.25
2017-11-01T03:35:07.143Z,7.07
2017-11-01T03:37:36.001Z,9.13
2017-11-01T03:40:04.885Z,8.60
2017-11-01T03:42:32.999Z,9.25
2017-11-01T03:45:01.106Z,8.73
2017-11-01T03:47:29.242Z,11.45
2017-11-01T03:49:57.334Z,9.48
2017-11-01T03:52:26.235Z,11.80
2017-11-01T03:54:54.477Z,12.00
2017-11-01T03:57:22.566Z,7.50
2017-11-01T03:59:50.707Z,13.40
2017-11-01T04:02:18.816Z,7.03
2017-11-01T04:04:46.937Z,10.60
2017-11-01T04:07:15.061Z,7.47
2017-11-01T04:09:43.207Z,8.82
2017-11-01T04:12:11.320Z,7.30
2017-11-01T04:14:39.455Z,6.05
2017-11-01T04:17:07.562Z,11.12
2017-11-01T04:19:36.554Z,10.48
2017-11-01T04:22:04.666Z,5.75
2017-11-01T04:24:32.783Z,5.85
2017-11-01T04:27:00.901Z,6.43
2017-11-01T04:29:29.782Z,5.68
2017-11-01T04:31:58.669Z,7.00
2017-11-01T04:34:27.558Z,6.00
2017-11-01T04:36:55.674Z,6.17
2017-11-01T04:39:23.796Z,7.43
2017-11-01T04:41:51.894Z,5.45
2017-11-01T04:44:20.043Z,5.60
2017-11-01T04:46:48.938Z,6.25
2017-11-01T04:49:17.840Z,5.20
2017-11-01T04:51:47.508Z,6.47
2017-11-01T04:54:15.626Z,9.55
2017-11-01T04:56:44.495Z,8.60
2017-11-01T04:59:13.366Z,5.30
2017-11-01T05:01:43.250Z,7.37
2017-11-01T05:04:11.418Z,8.02
2017-11-01T05:06:40.253Z,7.90
2017-11-01T05:09:12.718Z,8.00
2017-11-01T05:11:41.834Z,5.90
2017-11-01T05:14:15.622Z,10.80
2017-11-01T05:16:44.493Z,6.50
2017-11-01T05:19:16.208Z,6.53
2017-11-01T05:21:44.320Z,8.33
2017-11-01T05:24:12.491Z,6.47
2017-11-01T05:26:40.625Z,5.57
2017-11-01T05:29:08.735Z,8.18
2017-11-01T05:31:36.853Z,8.70
2017-11-01T05:34:04.969Z,9.95
2017-11-01T05:36:33.085Z,6.80
2017-11-01T05:39:01.975Z,5.97
2017-11-01T05:41:30.849Z,6.10
2017-11-01T05:43:58.976Z,6.65
2017-11-01T05:46:27.081Z,10.02
2017-11-01T05:48:55.195Z,8.60
2017-11-01T05:51:24.081Z,8.03
2017-11-01T05:53:52.196Z,7.18
2017-11-01T05:56:21.236Z,9.07
2017-11-01T05:58:50.106Z,7.43
2017-11-01T06:01:18.230Z,7.97
2017-11-01T06:03:46.337Z,7.78
2017-11-01T06:06:15.211Z,7.20
2017-11-01T06:08:43.337Z,6.97
2017-11-01T06:11:12.214Z,4.70
2017-11-01T06:13:41.107Z,6.50
2017-11-01T06:16:09.992Z,7.50
2017-11-01T06:18:38.894Z,9.82
2017-11-01T06:21:07.785Z,7.73
2017-11-01T06:23:35.922Z,6.68
2017-11-01T06:26:04.937Z,5.57
2017-11-01T06:28:33.826Z,11.10
2017-11-01T06:31:01.940Z,7.90
2017-11-01T06:33:30.049Z,5.72
2017-11-01T06:35:58.169Z,6.33
2017-11-01T06:38:26.287Z,6.22
2017-11-01T06:40:55.160Z,5.35
2017-11-01T06:43:23.273Z,10.40
2017-11-01T06:45:51.389Z,9.93
2017-11-01T06:48:19.501Z,9.10
2017-11-01T06:50:47.630Z,6.82
2017-11-01T06:53:15.756Z,9.68
2017-11-01T06:55:43.882Z,8.88
2017-11-01T06:58:11.996Z,9.68
2017-11-01T07:00:40.125Z,6.30
2017-11-01T07:03:22.720Z,5.43
2017-11-01T07:05:50.837Z,8.10
2017-11-01T07:08:19.029Z,9.70
2017-11-01T07:10:47.107Z,6.85
2017-11-01T07:13:15.983Z,8.95
2017-11-01T07:15:44.107Z,8.82
2017-11-01T07:18:12.227Z,11.95
2017-11-01T07:20:40.343Z,7.47
2017-11-01T07:23:08.449Z,9.65
2017-11-01T07:25:36.582Z,8.20
2017-11-01T07:28:04.705Z,7.28
2017-11-01T07:30:32.849Z,8.20
2017-11-01T07:33:00.971Z,10.30
2017-11-01T07:35:29.860Z,10.52
2017-11-01T07:37:57.976Z,7.97
2017-11-01T07:40:26.091Z,8.15
2017-11-01T07:42:54.317Z,6.30
2017-11-01T07:45:23.170Z,8.30
2017-11-01T07:47:52.312Z,7.12
2017-11-01T07:50:20.468Z,7.37
2017-11-01T07:52:49.344Z,4.65
2017-11-01T07:55:18.218Z,8.48
2017-11-01T07:57:47.114Z,7.25
2017-11-01T08:00:15.999Z,5.25
2017-11-01T08:02:44.873Z,5.80
2017-11-01T08:05:12.987Z,6.22
2017-11-01T08:07:41.108Z,5.35
2017-11-01T08:10:09.235Z,6.93
2017-11-01T08:12:37.352Z,3.95
2017-11-01T08:15:05.466Z,5.20
2017-11-01T08:17:33.574Z,6.30
2017-11-01T08:20:01.699Z,6.85
2017-11-01T08:22:30.616Z,6.47
2017-11-01T08:24:58.733Z,7.35
2017-11-01T08:27:26.853Z,8.45
2017-11-01T08:29:54.968Z,6.53
2017-11-01T08:32:23.082Z,4.95
2017-11-01T08:34:51.199Z,4.85
2017-11-01T08:37:19.328Z,6.63
2017-11-01T08:39:48.231Z,5.62
2017-11-01T08:42:16.347Z,6.97
2017-11-01T08:44:44.500Z,5.50
2017-11-01T08:47:12.614Z,5.78
2017-11-01T08:49:41.491Z,6.70
2017-11-01T08:52:09.719Z,6.00
2017-11-01T08:54:37.806Z,4.07
2017-11-01T08:57:06.712Z,3.87
2017-11-01T08:59:34.810Z,8.50
2017-11-01T09:02:03.721Z,8.03
2017-11-01T09:04:32.603Z,3.30
2017-11-01T09:07:01.482Z,7.28
2017-11-01T09:09:30.356Z,5.37
2017-11-01T09:11:58.496Z,4.32
2017-11-01T09:14:26.612Z,8.40
2017-11-01T09:16:56.510Z,6.12
2017-11-01T09:19:24.618Z,4.62
2017-11-01T09:21:52.749Z,3.47
2017-11-01T09:24:20.858Z,3.95
2017-11-01T09:26:49.771Z,6.35
2017-11-01T09:29:17.880Z,3.15
2017-11-01T09:31:45.997Z,4.17
2017-11-01T09:34:14.168Z,4.25
2017-11-01T09:36:42.270Z,6.60
2017-11-01T09:39:10.395Z,7.47
2017-11-01T09:41:39.277Z,4.70
2017-11-01T09:44:07.406Z,6.80
2017-11-01T09:46:35.577Z,14.60
2017-11-01T09:49:03.691Z,6.72
2017-11-01T09:51:31.805Z,8.23
2017-11-01T09:53:59.939Z,5.85
2017-11-01T09:56:28.136Z,4.10
2017-11-01T09:58:56.271Z,7.28
2017-11-01T10:01:24.400Z,5.15
2017-11-01T10:03:52.531Z,5.70
2017-11-01T10:06:20.686Z,7.60
2017-11-01T10:08:48.816Z,7.07
2017-11-01T10:11:16.942Z,8.48
2017-11-01T10:13:45.069Z,4.60
2017-11-01T10:16:13.166Z,7.93
2017-11-01T10:18:41.289Z,6.32
2017-11-01T10:21:09.394Z,5.10
2017-11-01T10:23:37.530Z,4.85
2017-11-01T10:26:05.674Z,6.72
2017-11-01T10:28:33.809Z,7.20
2017-11-01T10:31:01.909Z,5.80
2017-11-01T10:33:30.815Z,8.20
2017-11-01T10:35:59.698Z,8.53
2017-11-01T10:38:27.821Z,5.47
2017-11-01T10:40:55.943Z,6.35
2017-11-01T10:43:24.145Z,5.50
2017-11-01T10:45:52.297Z,7.18
2017-11-01T10:48:20.411Z,7.00
2017-11-01T10:50:48.537Z,6.10
2017-11-01T10:53:16.668Z,7.70
2017-11-01T10:55:44.817Z,6.43
2017-11-01T10:58:12.977Z,8.27
2017-11-01T11:00:41.086Z,7.40
2017-11-01T11:03:09.242Z,7.35
2017-11-01T11:05:37.477Z,5.97
2017-11-01T11:08:06.359Z,7.50
2017-11-01T11:10:35.519Z,8.10
2017-11-01T11:13:03.647Z,6.65
2017-11-01T11:15:31.767Z,7.07
2017-11-01T11:18:00.647Z,9.70
2017-11-01T11:20:28.829Z,14.27
2017-11-01T11:22:56.963Z,12.70
2017-11-01T11:25:25.100Z,6.35
2017-11-01T11:27:53.220Z,7.78
2017-11-01T11:30:21.334Z,9.37
2017-11-01T11:32:49.470Z,7.65
2017-11-01T11:35:17.627Z,7.87
2017-11-01T11:37:45.745Z,13.95
2017-11-01T11:40:13.891Z,8.13
2017-11-01T11:42:41.998Z,10.82
2017-11-01T11:45:10.193Z,8.93
2017-11-01T11:47:38.372Z,9.45
2017-11-01T11:50:07.254Z,8.00
2017-11-01T11:52:36.139Z,9.60
2017-11-01T11:55:05.041Z,6.50
2017-11-01T11:57:33.916Z,8.35
2017-11-01T12:00:03.781Z,9.43
2017-11-01T12:02:31.928Z,9.00
2017-11-01T12:05:00.087Z,9.88
2017-11-01T12:07:28.971Z,7.10
2017-11-01T12:09:57.870Z,9.60
2017-11-01T12:12:26.785Z,12.63
2017-11-01T12:14:54.902Z,11.37
2017-11-01T12:17:23.052Z,9.65
2017-11-01T12:19:51.162Z,8.77
2017-11-01T12:22:20.058Z,7.90
2017-11-01T12:24:48.976Z,9.93
2017-11-01T12:27:17.116Z,13.15
2017-11-01T12:29:45.259Z,10.25
2017-11-01T12:32:13.381Z,9.27
2017-11-01T12:34:42.258Z,9.27
2017-11-01T12:37:11.173Z,11.97
2017-11-01T12:39:39.329Z,11.43
2017-11-01T12:42:07.503Z,7.78
2017-11-01T12:44:36.397Z,8.10
2017-11-01T12:47:04.535Z,11.82
2017-11-01T12:49:32.639Z,7.40
2017-11-01T12:52:00.763Z,9.48
2017-11-01T12:54:28.903Z,6.12
2017-11-01T12:56:57.081Z,6.22
2017-11-01T12:59:25.206Z,5.85
2017-11-01T13:01:53.339Z,8.00
2017-11-01T13:04:21.478Z,13.75
2017-11-01T13:06:50.399Z,10.50
2017-11-01T13:09:18.516Z,9.60
2017-11-01T13:11:47.513Z,7.62
2017-11-01T13:14:15.668Z,7.18
2017-11-01T13:16:43.849Z,5.80
2017-11-01T13:19:11.973Z,11.95
2017-11-01T13:21:40.121Z,9.73
2017-11-01T13:24:12.414Z,8.07
2017-11-01T13:26:40.528Z,7.55
2017-11-01T13:29:08.668Z,10.82
2017-11-01T13:31:36.798Z,5.20
2017-11-01T13:34:04.930Z,9.07
2017-11-01T13:36:33.070Z,9.10
2017-11-01T13:39:01.190Z,5.25
2017-11-01T13:41:29.326Z,12.98
2017-11-01T13:43:57.498Z,5.75
2017-11-01T13:46:25.650Z,8.50
2017-11-01T13:48:53.804Z,6.68
2017-11-01T13:51:21.971Z,6.00
2017-11-01T13:53:50.899Z,5.65
2017-11-01T13:56:19.484Z,5.70
2017-11-01T13:58:47.612Z,7.43
2017-11-01T14:01:16.846Z,7.27
2017-11-01T14:03:45.018Z,6.25
2017-11-01T14:06:13.145Z,3.93
2017-11-01T14:08:42.083Z,4.20
2017-11-01T14:11:10.242Z,4.68
2017-11-01T14:13:39.130Z,5.05
2017-11-01T14:16:07.256Z,4.90
2017-11-01T14:18:35.415Z,3.47
2017-11-01T14:21:03.539Z,4.63
2017-11-01T14:23:31.653Z,3.58
2017-11-01T14:25:59.767Z,4.65
2017-11-01T14:28:28.660Z,4.65
2017-11-01T14:30:57.587Z,3.70
2017-11-01T14:33:25.711Z,3.70
2017-11-01T14:35:53.834Z,3.07
2017-11-01T14:38:22.004Z,4.90
2017-11-01T14:40:50.114Z,5.82
2017-11-01T14:43:18.233Z,6.20
2017-11-01T14:45:46.363Z,3.10
2017-11-01T14:48:14.495Z,2.75
2017-11-01T14:50:42.625Z,3.33
2017-11-01T14:53:11.522Z,3.25
2017-11-01T14:55:40.404Z,4.07
2017-11-01T14:58:09.302Z,2.58
2017-11-01T15:00:38.196Z,3.12
2017-11-01T15:03:07.083Z,2.90
2017-11-01T15:05:35.968Z,4.03
2017-11-01T15:10:39.491Z,5.25
2017-11-01T15:13:08.371Z,5.20
2017-11-01T15:15:37.247Z,8.80
2017-11-01T15:18:05.390Z,6.80
2017-11-01T15:20:33.505Z,3.07
2017-11-01T15:23:02.396Z,5.03
2017-11-01T15:25:30.554Z,3.50
2017-11-01T15:27:58.651Z,8.05
2017-11-01T15:30:26.788Z,3.33
2017-11-01T15:32:55.009Z,3.00
2017-11-01T15:35:23.899Z,4.15
2017-11-01T15:37:52.016Z,4.90
2017-11-01T15:40:20.173Z,7.20
2017-11-01T15:42:48.281Z,7.95
2017-11-01T15:45:16.446Z,4.62
2017-11-01T15:47:45.336Z,7.97
2017-11-01T15:50:13.456Z,7.97
2017-11-01T15:52:41.596Z,7.07
2017-11-01T15:55:10.472Z,7.85
2017-11-01T15:57:39.371Z,8.20
2017-11-01T16:00:08.290Z,8.27
2017-11-01T16:02:36.398Z,8.82
2017-11-01T16:05:04.510Z,6.30
2017-11-01T16:07:33.416Z,7.27
2017-11-01T16:10:02.278Z,8.05
2017-11-01T16:12:31.161Z,7.65
2017-11-01T16:15:00.054Z,8.95
2017-11-01T16:17:28.196Z,11.25
2017-11-01T16:19:56.345Z,20.17
2017-11-01T16:22:24.485Z,25.37
2017-11-01T16:24:53.363Z,25.95
2017-11-01T16:27:22.252Z,25.12
2017-11-01T16:29:51.151Z,28.87
2017-11-01T16:32:20.035Z,28.62
2017-11-01T16:34:48.915Z,24.02
2017-11-01T16:37:17.033Z,27.07
2017-11-01T16:39:45.169Z,34.80
2017-11-01T16:42:14.053Z,42.45
2017-11-01T16:44:42.976Z,46.03
2017-11-01T16:47:11.842Z,38.17
2017-11-01T16:49:40.735Z,40.97
2017-11-01T16:52:09.628Z,32.20
2017-11-01T16:54:37.775Z,21.73
2017-11-01T16:57:05.895Z,19.70
2017-11-01T16:59:34.036Z,23.10
2017-11-01T17:02:02.945Z,24.07
2017-11-01T17:04:31.076Z,18.85
2017-11-01T17:06:59.222Z,18.77
2017-11-01T17:09:27.321Z,19.45
2017-11-01T17:11:55.440Z,18.00
2017-11-01T17:14:24.376Z,19.12
2017-11-01T17:16:52.494Z,19.98
2017-11-01T17:19:20.621Z,15.50
2017-11-01T17:24:19.572Z,13.23
2017-11-01T17:26:47.734Z,14.50
2017-11-01T17:29:15.846Z,15.02
2017-11-01T17:31:43.987Z,10.67
2017-11-01T17:34:12.860Z,10.82
2017-11-01T17:36:41.751Z,9.80
2017-11-01T17:39:10.654Z,13.27
2017-11-01T17:41:39.524Z,16.33
2017-11-01T17:44:08.420Z,16.30
2017-11-01T17:46:37.316Z,17.33
2017-11-01T17:49:06.241Z,18.15
2017-11-01T17:51:34.357Z,21.60
2017-11-01T17:54:02.493Z,19.30
2017-11-01T17:56:30.632Z,18.50
2017-11-01T17:58:59.534Z,16.40
2017-11-01T18:01:27.692Z,14.02
2017-11-01T18:03:56.577Z,11.95
2017-11-01T18:06:24.688Z,13.00
2017-11-01T18:08:52.820Z,15.00
2017-11-01T18:11:21.711Z,12.95
2017-11-01T18:13:49.836Z,14.70
2017-11-01T18:16:17.975Z,13.10
2017-11-01T18:18:46.279Z,12.35
2017-11-01T18:21:15.260Z,19.80
2017-11-01T18:23:43.374Z,21.90
2017-11-01T18:26:11.510Z,20.12
2017-11-01T18:28:39.623Z,28.60
2017-11-01T18:31:08.514Z,20.47
2017-11-01T18:33:37.419Z,21.80
2017-11-01T18:36:06.349Z,19.03
2017-11-01T18:38:34.486Z,22.85
2017-11-01T18:41:02.634Z,19.40
2017-11-01T18:43:30.763Z,19.17
2017-11-01T18:45:58.919Z,16.13
2017-11-01T18:48:27.053Z,18.05
2017-11-01T18:50:55.197Z,17.63
2017-11-01T18:53:23.336Z,17.77
2017-11-01T18:55:51.468Z,12.13
2017-11-01T18:58:20.328Z,12.57
2017-11-01T19:00:48.454Z,14.15
2017-11-01T19:03:16.585Z,15.23
2017-11-01T19:05:44.717Z,12.70
2017-11-01T19:08:13.068Z,20.48
2017-11-01T19:10:41.990Z,17.75
2017-11-01T19:13:10.167Z,16.08
2017-11-01T19:15:38.285Z,17.67
2017-11-01T19:18:06.516Z,25.67
2017-11-01T19:20:34.642Z,22.13
2017-11-01T19:23:03.535Z,22.00
2017-11-01T19:25:32.448Z,24.10
2017-11-01T19:28:00.574Z,17.35
2017-11-01T19:30:28.804Z,19.53
2017-11-01T19:32:56.942Z,21.65
2017-11-01T19:35:25.862Z,25.85
2017-11-01T19:37:53.998Z,24.67
2017-11-01T19:40:22.138Z,24.85
2017-11-01T19:42:56.233Z,22.35
2017-11-01T19:45:24.622Z,21.80
2017-11-01T19:47:52.804Z,20.08
2017-11-01T19:50:20.943Z,21.15
2017-11-01T19:52:49.100Z,23.25
2017-11-01T19:55:17.986Z,19.70
2017-11-01T19:57:46.267Z,17.70
2017-11-01T20:00:14.403Z,17.42
2017-11-01T20:02:42.568Z,22.37
2017-11-01T20:05:10.698Z,19.75
2017-11-01T20:07:38.851Z,20.05
2017-11-01T20:10:07.719Z,17.98
2017-11-01T20:12:36.631Z,20.90
2017-11-01T20:15:05.499Z,23.03
2017-11-01T20:17:34.413Z,21.92
2017-11-01T20:20:03.306Z,29.58
2017-11-01T20:22:32.313Z,26.97
2017-11-01T20:25:00.465Z,26.75
2017-11-01T20:27:29.371Z,30.77
2017-11-01T20:29:58.285Z,27.93
2017-11-01T20:32:26.433Z,31.55
2017-11-01T20:34:54.589Z,27.00
2017-11-01T20:37:22.872Z,27.13
2017-11-01T20:39:52.042Z,19.77
2017-11-01T20:42:20.284Z,22.62
2017-11-01T20:44:48.442Z,22.27
2017-11-01T20:49:43.207Z,20.55
2017-11-01T20:52:11.405Z,21.30
2017-11-01T20:54:40.454Z,18.85
2017-11-01T20:57:08.616Z,17.98
2017-11-01T20:59:36.749Z,21.15
2017-11-01T21:02:04.900Z,18.23
2017-11-01T21:04:36.743Z,16.92
2017-11-01T21:07:04.871Z,44.03
2017-11-01T21:09:33.004Z,22.98
2017-11-01T21:12:02.045Z,16.77
2017-11-01T21:14:30.155Z,22.95
2017-11-01T21:16:59.310Z,30.35
2017-11-01T21:19:27.510Z,26.95
2017-11-01T21:21:55.675Z,21.40
2017-11-01T21:24:23.782Z,22.60
2017-11-01T21:26:52.669Z,22.35
2017-11-01T21:29:21.903Z,19.70
2017-11-01T21:31:50.064Z,22.48
2017-11-01T21:34:18.389Z,25.73
2017-11-01T21:36:47.366Z,38.50
2017-11-01T21:39:15.793Z,34.45
2017-11-01T21:41:44.696Z,36.40
2017-11-01T21:44:13.698Z,33.63
2017-11-01T21:46:41.850Z,39.37
2017-11-01T21:49:10.146Z,31.98
2017-11-01T21:51:38.395Z,27.87
2017-11-01T21:54:06.663Z,30.27
2017-11-01T21:56:34.914Z,26.77
2017-11-01T21:59:03.084Z,27.98
2017-11-01T22:01:31.228Z,32.40
2017-11-01T22:03:59.388Z,24.40
2017-11-01T22:06:27.985Z,25.00
2017-11-01T22:08:56.616Z,28.60
2017-11-01T22:11:25.506Z,26.15
2017-11-01T22:13:54.497Z,29.83
2017-11-01T22:16:23.463Z,28.00
2017-11-01T22:18:51.582Z,23.90
2017-11-01T22:21:20.454Z,21.47
2017-11-01T22:23:50.408Z,21.62
2017-11-01T22:26:18.526Z,19.58
2017-11-01T22:28:46.825Z,21.37
2017-11-01T22:31:15.701Z,17.10
2017-11-01T22:33:44.587Z,17.87
2017-11-01T22:36:13.496Z,17.93
2017-11-01T22:38:41.665Z,23.33
2017-11-01T22:41:10.550Z,19.85
2017-11-01T22:43:39.442Z,17.98
2017-11-01T22:46:08.450Z,22.17
2017-11-01T22:48:36.722Z,18.17
2017-11-01T22:51:04.881Z,18.97
2017-11-01T22:53:33.778Z,22.10
2017-11-01T22:56:01.954Z,19.40
2017-11-01T22:58:30.848Z,17.42
2017-11-01T23:00:59.761Z,20.10
2017-11-01T23:03:27.896Z,21.58
2017-11-01T23:05:56.885Z,17.25
2017-11-01T23:26:07.975Z,15.38
2017-11-01T23:31:34.361Z,12.20
2017-11-01T23:34:02.468Z,11.30
2017-11-01T23:36:30.605Z,12.98
2017-11-01T23:38:58.732Z,10.45
2017-11-01T23:41:26.845Z,10.45
2017-11-01T23:43:54.968Z,11.68
2017-11-01T23:46:23.094Z,12.40
2017-11-01T23:48:51.209Z,14.07
2017-11-01T23:51:19.342Z,12.07
2017-11-01T23:53:47.466Z,10.88
2017-11-01T23:56:16.353Z,12.25
2017-11-01T23:58:44.469Z,13.18
